Terminal Aerodrome Forecast
Issued by NWS

Home | Current Version | Previous Version | Text Only | Print | Product List | Glossary On
Versions: 1 2 3 4 5 6 7 8 9 10 11 12 13 14
449
FTUS44 KTSA 130310 AAA
TAFXNA
TAF AMD
KXNA 130310Z 1303/1324 02008KT P6SM BKN120 OVC200
     FM131300 06005KT P6SM BKN200
     FM131700 11008KT P6SM BKN200=

USA.gov is the U.S. government's official web portal to all federal, state and local government web resources and services.